sensor_id;sensor_type;location;lat;lon;timestamp;pressure;altitude;pressure_sealevel;temperature;humidity
73671;BME280;61968;48.178;11.566;2023-07-22T00:00:23;95772.38;;;17.36;41.54
73671;BME280;61968;48.178;11.566;2023-07-22T00:02:50;95783.59;;;17.48;41.37
73671;BME280;61968;48.178;11.566;2023-07-22T00:05:16;95778.25;;;17.43;40.61
73671;BME280;61968;48.178;11.566;2023-07-22T00:07:47;95781.72;;;17.43;40.58
73671;BME280;61968;48.178;11.566;2023-07-22T00:10:14;95781.72;;;17.49;40.40
73671;BME280;61968;48.178;11.566;2023-07-22T00:12:40;95781.47;;;17.45;40.64
73671;BME280;61968;48.178;11.566;2023-07-22T00:15:09;95776.66;;;17.42;40.55
73671;BME280;61968;48.178;11.566;2023-07-22T00:17:37;95780.34;;;17.41;40.29
73671;BME280;61968;48.178;11.566;2023-07-22T00:20:04;95781.44;;;17.40;40.89
73671;BME280;61968;48.178;11.566;2023-07-22T00:22:32;95780.66;;;17.39;40.36
73671;BME280;61968;48.178;11.566;2023-07-22T00:24:58;95777.19;;;17.39;40.52
73671;BME280;61968;48.178;11.566;2023-07-22T00:27:26;95780.34;;;17.41;40.67
73671;BME280;61968;48.178;11.566;2023-07-22T00:29:52;95778.78;;;17.40;40.96
73671;BME280;61968;48.178;11.566;2023-07-22T00:32:20;95771.84;;;17.34;41.17
73671;BME280;61968;48.178;11.566;2023-07-22T00:34:46;95767.59;;;17.33;41.39
73671;BME280;61968;48.178;11.566;2023-07-22T00:37:13;95768.09;;;17.35;41.02
73671;BME280;61968;48.178;11.566;2023-07-22T00:39:39;95763.00;;;17.38;41.29
73671;BME280;61968;48.178;11.566;2023-07-22T00:42:06;95757.66;;;17.38;41.69
73671;BME280;61968;48.178;11.566;2023-07-22T00:44:33;95757.97;;;17.42;42.41
73671;BME280;61968;48.178;11.566;2023-07-22T00:47:00;95757.97;;;17.42;42.64
73671;BME280;61968;48.178;11.566;2023-07-22T00:49:29;95757.97;;;17.42;41.25
73671;BME280;61968;48.178;11.566;2023-07-22T00:51:56;95756.88;;;17.33;41.30
73671;BME280;61968;48.178;11.566;2023-07-22T00:54:25;95755.56;;;17.30;41.27
73671;BME280;61968;48.178;11.566;2023-07-22T00:56:53;95751.25;;;17.34;41.16
73671;BME280;61968;48.178;11.566;2023-07-22T00:59:20;95743.78;;;17.31;41.11
73671;BME280;61968;48.178;11.566;2023-07-22T01:01:47;95740.84;;;17.33;41.32
73671;BME280;61968;48.178;11.566;2023-07-22T01:04:14;95736.84;;;17.30;41.55
73671;BME280;61968;48.178;11.566;2023-07-22T01:06:43;95743.00;;;17.31;41.31
73671;BME280;61968;48.178;11.566;2023-07-22T01:09:10;95744.59;;;17.32;41.88
73671;BME280;61968;48.178;11.566;2023-07-22T01:11:36;95731.75;;;17.29;42.13
73671;BME280;61968;48.178;11.566;2023-07-22T01:14:03;95737.16;;;17.18;41.64
73671;BME280;61968;48.178;11.566;2023-07-22T01:16:30;95729.09;;;17.23;42.81
73671;BME280;61968;48.178;11.566;2023-07-22T01:18:57;95727.50;;;17.22;41.67
73671;BME280;61968;48.178;11.566;2023-07-22T01:21:24;95728.31;;;17.23;41.71
73671;BME280;61968;48.178;11.566;2023-07-22T01:23:53;95728.56;;;17.27;41.44
73671;BME280;61968;48.178;11.566;2023-07-22T01:26:20;95727.22;;;17.29;41.04
73671;BME280;61968;48.178;11.566;2023-07-22T01:28:47;95731.03;;;17.18;41.35
73671;BME280;61968;48.178;11.566;2023-07-22T01:31:13;95738.50;;;17.16;41.34
73671;BME280;61968;48.178;11.566;2023-07-22T01:33:40;95736.63;;;17.21;41.38
73671;BME280;61968;48.178;11.566;2023-07-22T01:36:06;95736.88;;;17.25;41.93
73671;BME280;61968;48.178;11.566;2023-07-22T01:38:33;95737.41;;;17.17;41.19
73671;BME280;61968;48.178;11.566;2023-07-22T01:41:02;95732.59;;;17.19;41.44
73671;BME280;61968;48.178;11.566;2023-07-22T01:43:28;95734.75;;;17.22;41.15
73671;BME280;61968;48.178;11.566;2023-07-22T01:45:55;95745.66;;;17.31;41.03
73671;BME280;61968;48.178;11.566;2023-07-22T01:48:21;95736.84;;;17.30;40.84
73671;BME280;61968;48.178;11.566;2023-07-22T01:50:48;95742.75;;;17.22;41.65
73671;BME280;61968;48.178;11.566;2023-07-22T01:53:15;95744.38;;;17.18;41.68
73671;BME280;61968;48.178;11.566;2023-07-22T01:55:41;95749.47;;;17.09;41.60
73671;BME280;61968;48.178;11.566;2023-07-22T01:58:10;95752.16;;;16.99;41.85
73671;BME280;61968;48.178;11.566;2023-07-22T02:00:37;95747.91;;;16.93;42.20
73671;BME280;61968;48.178;11.566;2023-07-22T02:03:03;95745.75;;;17.00;42.33
73671;BME280;61968;48.178;11.566;2023-07-22T02:05:30;95756.44;;;16.90;42.18
73671;BME280;61968;48.178;11.566;2023-07-22T02:07:57;95745.75;;;16.90;42.52
73671;BME280;61968;48.178;11.566;2023-07-22T02:10:23;95739.63;;;16.89;42.29
73671;BME280;61968;48.178;11.566;2023-07-22T02:12:50;95746.84;;;16.94;42.19
73671;BME280;61968;48.178;11.566;2023-07-22T02:15:18;95752.16;;;16.99;42.54
73671;BME280;61968;48.178;11.566;2023-07-22T02:17:47;95756.44;;;17.00;42.38
73671;BME280;61968;48.178;11.566;2023-07-22T02:20:13;95753.50;;;17.02;42.28
73671;BME280;61968;48.178;11.566;2023-07-22T02:22:40;95754.03;;;16.98;42.41
73671;BME280;61968;48.178;11.566;2023-07-22T02:25:07;95753.22;;;17.03;42.44
73671;BME280;61968;48.178;11.566;2023-07-22T02:27:35;95753.50;;;17.02;43.04
73671;BME280;61968;48.178;11.566;2023-07-22T02:30:02;95743.06;;;17.10;42.98
73671;BME280;61968;48.178;11.566;2023-07-22T02:32:31;95754.28;;;17.12;42.36
73671;BME280;61968;48.178;11.566;2023-07-22T02:34:57;95754.28;;;17.12;42.33
73671;BME280;61968;48.178;11.566;2023-07-22T02:37:24;95754.28;;;17.12;42.92
73671;BME280;61968;48.178;11.566;2023-07-22T02:39:50;95750.81;;;17.12;42.45
73671;BME280;61968;48.178;11.566;2023-07-22T02:42:17;95744.13;;;17.09;42.32
73671;BME280;61968;48.178;11.566;2023-07-22T02:44:43;95751.59;;;17.12;42.32
73671;BME280;61968;48.178;11.566;2023-07-22T02:47:10;95750.53;;;17.13;42.32
73671;BME280;61968;48.178;11.566;2023-07-22T02:49:37;95749.97;;;17.21;42.10
73671;BME280;61968;48.178;11.566;2023-07-22T02:52:05;95752.41;;;17.18;42.51
73671;BME280;61968;48.178;11.566;2023-07-22T02:54:39;95753.44;;;17.22;42.32
73671;BME280;61968;48.178;11.566;2023-07-22T02:57:05;95763.34;;;17.21;42.62
73671;BME280;61968;48.178;11.566;2023-07-22T02:59:32;95763.59;;;17.20;42.73
73671;BME280;61968;48.178;11.566;2023-07-22T03:01:59;95761.22;;;17.18;42.99
73671;BME280;61968;48.178;11.566;2023-07-22T03:04:25;95770.03;;;17.14;43.17
73671;BME280;61968;48.178;11.566;2023-07-22T03:06:53;95764.72;;;17.09;43.19
73671;BME280;61968;48.178;11.566;2023-07-22T03:09:20;95772.44;;;17.05;43.76
73671;BME280;61968;48.178;11.566;2023-07-22T03:11:47;95768.19;;;17.04;43.77
73671;BME280;61968;48.178;11.566;2023-07-22T03:14:13;95770.31;;;17.02;43.61
73671;BME280;61968;48.178;11.566;2023-07-22T03:16:40;95769.78;;;16.95;44.18
73671;BME280;61968;48.178;11.566;2023-07-22T03:19:06;95767.13;;;16.95;44.06
73671;BME280;61968;48.178;11.566;2023-07-22T03:21:33;95768.19;;;16.99;44.79
73671;BME280;61968;48.178;11.566;2023-07-22T03:24:01;95761.25;;;17.03;44.21
73671;BME280;61968;48.178;11.566;2023-07-22T03:26:27;95764.97;;;17.02;44.46
73671;BME280;61968;48.178;11.566;2023-07-22T03:28:54;95762.53;;;17.11;43.96
73671;BME280;61968;48.178;11.566;2023-07-22T03:31:20;95767.38;;;17.04;44.07
73671;BME280;61968;48.178;11.566;2023-07-22T03:33:47;95762.84;;;16.99;44.27
73671;BME280;61968;48.178;11.566;2023-07-22T03:36:15;95761.78;;;17.00;44.78
73671;BME280;61968;48.178;11.566;2023-07-22T03:38:41;95758.28;;;17.05;44.12
73671;BME280;61968;48.178;11.566;2023-07-22T03:41:09;95758.53;;;17.08;43.94
73671;BME280;61968;48.178;11.566;2023-07-22T03:43:35;95765.25;;;17.00;44.88
73671;BME280;61968;48.178;11.566;2023-07-22T03:46:02;95766.34;;;16.99;44.33
73671;BME280;61968;48.178;11.566;2023-07-22T03:48:29;95768.47;;;17.03;44.05
73671;BME280;61968;48.178;11.566;2023-07-22T03:50:55;95771.34;;;17.11;44.10
73671;BME280;61968;48.178;11.566;2023-07-22T03:53:21;95778.03;;;17.14;44.09
73671;BME280;61968;48.178;11.566;2023-07-22T03:55:48;95789.03;;;16.97;44.62
73671;BME280;61968;48.178;11.566;2023-07-22T03:58:16;95776.75;;;16.81;44.84
73671;BME280;61968;48.178;11.566;2023-07-22T04:00:42;95786.94;;;16.79;44.99
73671;BME280;61968;48.178;11.566;2023-07-22T04:03:09;95783.16;;;16.74;44.62
73671;BME280;61968;48.178;11.566;2023-07-22T04:05:35;95778.91;;;16.73;44.63
73671;BME280;61968;48.178;11.566;2023-07-22T04:08:02;95783.13;;;16.54;45.43
73671;BME280;61968;48.178;11.566;2023-07-22T04:10:29;95784.47;;;16.57;45.35
73671;BME280;61968;48.178;11.566;2023-07-22T04:12:55;95786.06;;;16.63;45.20
73671;BME280;61968;48.178;11.566;2023-07-22T04:15:23;95786.09;;;16.68;45.01
73671;BME280;61968;48.178;11.566;2023-07-22T04:17:50;95792.75;;;16.55;45.35
73671;BME280;61968;48.178;11.566;2023-07-22T04:20:16;95794.63;;;16.44;45.76
73671;BME280;61968;48.178;11.566;2023-07-22T04:22:44;95797.53;;;16.48;45.56
73671;BME280;61968;48.178;11.566;2023-07-22T04:25:10;95800.75;;;16.40;45.87
73671;BME280;61968;48.178;11.566;2023-07-22T04:27:37;95803.97;;;16.37;45.90
73671;BME280;61968;48.178;11.566;2023-07-22T04:30:04;95794.63;;;16.39;45.76
73671;BME280;61968;48.178;11.566;2023-07-22T04:32:32;95806.63;;;16.42;45.63
73671;BME280;61968;48.178;11.566;2023-07-22T04:34:59;95809.31;;;16.52;45.28
73671;BME280;61968;48.178;11.566;2023-07-22T04:37:25;95805.03;;;16.51;45.42
73671;BME280;61968;48.178;11.566;2023-07-22T04:39:52;95802.66;;;16.54;45.22
73671;BME280;61968;48.178;11.566;2023-07-22T04:42:19;95791.16;;;16.49;45.37
73671;BME280;61968;48.178;11.566;2023-07-22T04:44:46;95790.38;;;16.64;45.19
73671;BME280;61968;48.178;11.566;2023-07-22T04:47:12;95783.69;;;16.46;45.02
73671;BME280;61968;48.178;11.566;2023-07-22T04:49:40;95777.81;;;16.59;44.71
73671;BME280;61968;48.178;11.566;2023-07-22T04:52:07;95792.75;;;16.55;44.48
73671;BME280;61968;48.178;11.566;2023-07-22T04:54:33;95796.22;;;16.50;44.49
73671;BME280;61968;48.178;11.566;2023-07-22T04:57:00;95786.34;;;16.41;45.04
73671;BME280;61968;48.178;11.566;2023-07-22T04:59:28;95786.09;;;16.37;44.42
73671;BME280;61968;48.178;11.566;2023-07-22T05:01:54;95797.81;;;16.31;44.63
73671;BME280;61968;48.178;11.566;2023-07-22T05:04:21;95790.09;;;16.50;44.83
73671;BME280;61968;48.178;11.566;2023-07-22T05:06:49;95793.31;;;16.52;44.57
73671;BME280;61968;48.178;11.566;2023-07-22T05:09:15;95803.44;;;16.65;43.80
73671;BME280;61968;48.178;11.566;2023-07-22T05:11:42;95805.84;;;16.51;44.00
73671;BME280;61968;48.178;11.566;2023-07-22T05:14:08;95800.50;;;16.51;44.14
73671;BME280;61968;48.178;11.566;2023-07-22T05:16:34;95807.72;;;16.61;44.59
73671;BME280;61968;48.178;11.566;2023-07-22T05:19:01;95813.06;;;16.71;43.46
73671;BME280;61968;48.178;11.566;2023-07-22T05:21:30;95813.63;;;16.73;43.80
73671;BME280;61968;48.178;11.566;2023-07-22T05:23:57;95818.66;;;16.75;44.76
73671;BME280;61968;48.178;11.566;2023-07-22T05:26:24;95817.88;;;16.90;43.65
73671;BME280;61968;48.178;11.566;2023-07-22T05:28:50;95817.06;;;16.94;43.53
73671;BME280;61968;48.178;11.566;2023-07-22T05:31:17;95818.69;;;16.85;43.41
73671;BME280;61968;48.178;11.566;2023-07-22T05:33:44;95810.94;;;16.73;43.48
73671;BME280;61968;48.178;11.566;2023-07-22T05:36:10;95810.66;;;16.90;42.83
73671;BME280;61968;48.178;11.566;2023-07-22T05:38:37;95818.94;;;16.99;43.15
73671;BME280;61968;48.178;11.566;2023-07-22T05:41:05;95811.47;;;17.01;42.93
73671;BME280;61968;48.178;11.566;2023-07-22T05:43:32;95813.59;;;17.09;43.21
73671;BME280;61968;48.178;11.566;2023-07-22T05:45:58;95817.88;;;17.00;42.92
73671;BME280;61968;48.178;11.566;2023-07-22T05:48:25;95814.94;;;16.96;42.67
73671;BME280;61968;48.178;11.566;2023-07-22T05:50:51;95814.94;;;17.07;42.85
73671;BME280;61968;48.178;11.566;2023-07-22T05:53:18;95803.44;;;17.06;42.50
73671;BME280;61968;48.178;11.566;2023-07-22T05:55:44;95804.50;;;17.05;42.64
73671;BME280;61968;48.178;11.566;2023-07-22T05:58:16;95805.53;;;17.14;41.95
73671;BME280;61968;48.178;11.566;2023-07-22T06:00:43;95815.97;;;17.16;42.20
73671;BME280;61968;48.178;11.566;2023-07-22T06:03:12;95813.00;;;17.17;42.36
73671;BME280;61968;48.178;11.566;2023-07-22T06:05:38;95822.94;;;17.12;42.15
73671;BME280;61968;48.178;11.566;2023-07-22T06:08:05;95818.09;;;17.14;41.92
73671;BME280;61968;48.178;11.566;2023-07-22T06:10:31;95819.16;;;17.23;41.71
73671;BME280;61968;48.178;11.566;2023-07-22T06:12:58;95822.38;;;17.25;41.77
73671;BME280;61968;48.178;11.566;2023-07-22T06:15:26;95819.44;;;17.21;41.13
73671;BME280;61968;48.178;11.566;2023-07-22T06:17:53;95819.94;;;17.29;41.28
73671;BME280;61968;48.178;11.566;2023-07-22T06:20:19;95827.69;;;17.35;41.15
73671;BME280;61968;48.178;11.566;2023-07-22T06:22:46;95828.50;;;17.36;41.84
73671;BME280;61968;48.178;11.566;2023-07-22T06:25:12;95825.03;;;17.30;40.32
73671;BME280;61968;48.178;11.566;2023-07-22T06:27:39;95831.47;;;17.24;41.27
73671;BME280;61968;48.178;11.566;2023-07-22T06:30:07;95837.56;;;17.35;41.02
73671;BME280;61968;48.178;11.566;2023-07-22T06:32:37;95841.31;;;17.49;40.02
73671;BME280;61968;48.178;11.566;2023-07-22T06:35:04;95845.56;;;17.55;39.44
73671;BME280;61968;48.178;11.566;2023-07-22T06:37:30;95839.72;;;17.48;39.60
73671;BME280;61968;48.178;11.566;2023-07-22T06:39:57;95842.41;;;17.48;39.16
73671;BME280;61968;48.178;11.566;2023-07-22T06:42:23;95842.91;;;17.50;39.34
73671;BME280;61968;48.178;11.566;2023-07-22T06:44:51;95839.16;;;17.41;38.49
73671;BME280;61968;48.178;11.566;2023-07-22T06:47:17;95845.56;;;17.55;39.77
73671;BME280;61968;48.178;11.566;2023-07-22T06:49:45;95852.56;;;17.36;38.90
73671;BME280;61968;48.178;11.566;2023-07-22T06:52:12;95853.63;;;17.25;38.14
73671;BME280;61968;48.178;11.566;2023-07-22T06:54:38;95854.97;;;17.27;38.96
73671;BME280;61968;48.178;11.566;2023-07-22T06:57:06;95846.69;;;17.18;38.95
73671;BME280;61968;48.178;11.566;2023-07-22T06:59:32;95845.88;;;17.43;38.86
73671;BME280;61968;48.178;11.566;2023-07-22T07:01:59;95847.22;;;17.31;38.98
73671;BME280;61968;48.178;11.566;2023-07-22T07:04:26;95846.13;;;17.52;38.13
73671;BME280;61968;48.178;11.566;2023-07-22T07:06:54;95851.47;;;17.37;38.67
73671;BME280;61968;48.178;11.566;2023-07-22T07:09:20;95848.28;;;17.25;39.28
73671;BME280;61968;48.178;11.566;2023-07-22T07:11:47;95856.56;;;17.23;38.46
73671;BME280;61968;48.178;11.566;2023-07-22T07:14:13;95851.22;;;17.49;38.45
73671;BME280;61968;48.178;11.566;2023-07-22T07:16:40;95853.84;;;17.64;39.45
73671;BME280;61968;48.178;11.566;2023-07-22T07:19:07;95850.88;;;17.76;38.03
73671;BME280;61968;48.178;11.566;2023-07-22T07:21:33;95858.91;;;17.71;37.50
73671;BME280;61968;48.178;11.566;2023-07-22T07:24:01;95861.31;;;17.67;37.04
73671;BME280;61968;48.178;11.566;2023-07-22T07:26:27;95847.97;;;17.62;36.55
73671;BME280;61968;48.178;11.566;2023-07-22T07:28:54;95853.06;;;17.38;36.78
73671;BME280;61968;48.178;11.566;2023-07-22T07:31:21;95848.84;;;17.42;38.32
73671;BME280;61968;48.178;11.566;2023-07-22T07:33:47;95852.75;;;17.65;37.18
73671;BME280;61968;48.178;11.566;2023-07-22T07:36:14;95854.59;;;17.80;37.39
73671;BME280;61968;48.178;11.566;2023-07-22T07:38:41;95848.97;;;17.76;36.78
73671;BME280;61968;48.178;11.566;2023-07-22T07:41:10;95862.66;;;17.64;35.90
73671;BME280;61968;48.178;11.566;2023-07-22T07:43:38;95869.06;;;17.68;37.21
73671;BME280;61968;48.178;11.566;2023-07-22T07:46:16;95858.69;;;17.52;37.43
73671;BME280;61968;48.178;11.566;2023-07-22T07:48:44;95861.81;;;17.79;36.58
73671;BME280;61968;48.178;11.566;2023-07-22T07:51:12;95865.50;;;17.94;36.98
73671;BME280;61968;48.178;11.566;2023-07-22T07:53:39;95861.72;;;18.00;37.08
73671;BME280;61968;48.178;11.566;2023-07-22T07:56:06;95862.78;;;17.99;34.81
73671;BME280;61968;48.178;11.566;2023-07-22T07:58:34;95868.19;;;17.88;35.23
73671;BME280;61968;48.178;11.566;2023-07-22T08:01:00;95871.97;;;17.77;36.10
73671;BME280;61968;48.178;11.566;2023-07-22T08:03:27;95864.69;;;17.93;35.58
73671;BME280;61968;48.178;11.566;2023-07-22T08:05:53;95865.16;;;18.10;37.13
73671;BME280;61968;48.178;11.566;2023-07-22T08:08:21;95867.03;;;18.15;36.10
73671;BME280;61968;48.178;11.566;2023-07-22T08:10:57;95869.41;;;18.22;35.05
73671;BME280;61968;48.178;11.566;2023-07-22T08:13:24;95874.22;;;18.25;34.21
73671;BME280;61968;48.178;11.566;2023-07-22T08:15:52;95865.09;;;18.26;35.26
73671;BME280;61968;48.178;11.566;2023-07-22T08:18:18;95867.97;;;18.40;35.84
73671;BME280;61968;48.178;11.566;2023-07-22T08:20:44;95865.63;;;18.28;34.86
73671;BME280;61968;48.178;11.566;2023-07-22T08:23:12;95863.53;;;18.20;34.65
73671;BME280;61968;48.178;11.566;2023-07-22T08:25:39;95861.81;;;18.39;34.33
73671;BME280;61968;48.178;11.566;2023-07-22T08:28:05;95875.59;;;18.07;34.57
73671;BME280;61968;48.178;11.566;2023-07-22T08:30:32;95873.72;;;18.12;35.05
73671;BME280;61968;48.178;11.566;2023-07-22T08:33:00;95873.09;;;18.31;33.88
73671;BME280;61968;48.178;11.566;2023-07-22T08:35:26;95875.25;;;18.29;36.89
73671;BME280;61968;48.178;11.566;2023-07-22T08:37:53;95872.31;;;18.30;37.13
73671;BME280;61968;48.178;11.566;2023-07-22T08:40:20;95870.81;;;18.53;34.41
73671;BME280;61968;48.178;11.566;2023-07-22T08:42:48;95864.66;;;18.58;33.61
73671;BME280;61968;48.178;11.566;2023-07-22T08:45:16;95859.91;;;18.45;33.22
73671;BME280;61968;48.178;11.566;2023-07-22T08:47:46;95864.72;;;18.48;36.49
73671;BME280;61968;48.178;11.566;2023-07-22T08:50:16;95863.28;;;18.61;35.02
73671;BME280;61968;48.178;11.566;2023-07-22T08:52:44;95852.22;;;18.72;35.49
73671;BME280;61968;48.178;11.566;2023-07-22T08:55:11;95862.63;;;18.84;31.63
73671;BME280;61968;48.178;11.566;2023-07-22T08:57:39;95854.28;;;18.86;33.96
73671;BME280;61968;48.178;11.566;2023-07-22T09:00:06;95861.53;;;18.80;34.54
73671;BME280;61968;48.178;11.566;2023-07-22T09:02:35;95858.84;;;18.85;31.99
73671;BME280;61968;48.178;11.566;2023-07-22T09:05:01;95863.66;;;18.88;35.25
73671;BME280;61968;48.178;11.566;2023-07-22T09:07:30;95857.31;;;19.08;32.67
73671;BME280;61968;48.178;11.566;2023-07-22T09:09:58;95861.53;;;18.85;29.82
73671;BME280;61968;48.178;11.566;2023-07-22T09:12:25;95855.38;;;18.79;28.84
73671;BME280;61968;48.178;11.566;2023-07-22T09:14:52;95851.81;;;18.94;30.90
73671;BME280;61968;48.178;11.566;2023-07-22T09:17:19;95853.25;;;18.81;30.73
73671;BME280;61968;48.178;11.566;2023-07-22T09:19:45;95846.88;;;18.72;30.51
73671;BME280;61968;48.178;11.566;2023-07-22T09:22:12;95855.50;;;18.64;30.22
73671;BME280;61968;48.178;11.566;2023-07-22T09:24:40;95853.03;;;18.73;28.66
73671;BME280;61968;48.178;11.566;2023-07-22T09:27:06;95855.16;;;18.76;30.71
73671;BME280;61968;48.178;11.566;2023-07-22T09:29:33;95857.38;;;18.64;29.69
73671;BME280;61968;48.178;11.566;2023-07-22T09:32:01;95851.59;;;18.91;28.49
73671;BME280;61968;48.178;11.566;2023-07-22T09:34:28;95851.47;;;19.01;29.94
73671;BME280;61968;48.178;11.566;2023-07-22T09:36:57;95840.97;;;19.10;31.66
73671;BME280;61968;48.178;11.566;2023-07-22T09:39:26;95851.50;;;19.30;29.98
73671;BME280;61968;48.178;11.566;2023-07-22T09:41:54;95842.97;;;19.23;29.21
73671;BME280;61968;48.178;11.566;2023-07-22T09:44:20;95840.00;;;19.24;28.26
73671;BME280;61968;48.178;11.566;2023-07-22T09:46:47;95839.97;;;19.00;28.05
73671;BME280;61968;48.178;11.566;2023-07-22T09:49:16;95845.94;;;19.21;28.95
73671;BME280;61968;48.178;11.566;2023-07-22T09:51:42;95837.97;;;19.40;32.33
73671;BME280;61968;48.178;11.566;2023-07-22T09:54:09;95848.03;;;19.54;28.92
73671;BME280;61968;48.178;11.566;2023-07-22T09:56:44;95834.59;;;19.00;28.60
73671;BME280;61968;48.178;11.566;2023-07-22T09:59:12;95838.88;;;19.01;29.44
73671;BME280;61968;48.178;11.566;2023-07-22T10:01:39;95835.34;;;19.35;28.51
73671;BME280;61968;48.178;11.566;2023-07-22T10:04:06;95829.59;;;19.47;28.30
73671;BME280;61968;48.178;11.566;2023-07-22T10:06:34;95834.03;;;19.03;29.52
73671;BME280;61968;48.178;11.566;2023-07-22T10:09:03;95836.06;;;19.17;28.71
73671;BME280;61968;48.178;11.566;2023-07-22T10:11:32;95838.38;;;18.99;29.04
73671;BME280;61968;48.178;11.566;2023-07-22T10:13:59;95835.09;;;18.68;30.01
73671;BME280;61968;48.178;11.566;2023-07-22T10:16:27;95831.50;;;18.88;28.64
73671;BME280;61968;48.178;11.566;2023-07-22T10:18:54;95837.47;;;18.75;28.39
73671;BME280;61968;48.178;11.566;2023-07-22T10:21:21;95833.72;;;18.36;31.40
73671;BME280;61968;48.178;11.566;2023-07-22T10:23:48;95830.97;;;18.86;31.67
73671;BME280;61968;48.178;11.566;2023-07-22T10:26:15;95833.75;;;19.05;29.00
73671;BME280;61968;48.178;11.566;2023-07-22T10:28:44;95827.38;;;19.30;30.21
73671;BME280;61968;48.178;11.566;2023-07-22T10:31:11;95819.28;;;19.59;31.65
73671;BME280;61968;48.178;11.566;2023-07-22T10:33:40;95825.50;;;19.79;27.84
73671;BME280;61968;48.178;11.566;2023-07-22T10:36:08;95816.31;;;19.85;28.99
73671;BME280;61968;48.178;11.566;2023-07-22T10:38:35;95822.25;;;19.82;27.81
73671;BME280;61968;48.178;11.566;2023-07-22T10:41:11;95821.16;;;19.59;27.41
73671;BME280;61968;48.178;11.566;2023-07-22T10:43:39;95818.59;;;19.48;28.56
73671;BME280;61968;48.178;11.566;2023-07-22T10:46:06;95821.22;;;19.78;28.38
73671;BME280;61968;48.178;11.566;2023-07-22T10:48:36;95817.28;;;19.94;27.98
73671;BME280;61968;48.178;11.566;2023-07-22T10:51:07;95816.91;;;20.01;28.46
73671;BME280;61968;48.178;11.566;2023-07-22T10:53:40;95809.06;;;19.85;27.49
73671;BME280;61968;48.178;11.566;2023-07-22T10:56:12;95806.25;;;19.71;27.91
73671;BME280;61968;48.178;11.566;2023-07-22T11:01:30;95803.91;;;20.08;28.13
73671;BME280;61968;48.178;11.566;2023-07-22T11:04:14;95792.59;;;20.11;27.61
73671;BME280;61968;48.178;11.566;2023-07-22T11:06:55;95799.00;;;19.96;28.21
73671;BME280;61968;48.178;11.566;2023-07-22T11:09:38;95798.09;;;19.63;28.38
73671;BME280;61968;48.178;11.566;2023-07-22T11:12:07;95790.09;;;19.58;28.56
73671;BME280;61968;48.178;11.566;2023-07-22T11:14:38;95789.50;;;19.61;29.25
73671;BME280;61968;48.178;11.566;2023-07-22T11:17:07;95776.44;;;19.97;27.58
73671;BME280;61968;48.178;11.566;2023-07-22T11:19:34;95778.38;;;19.48;28.02
73671;BME280;61968;48.178;11.566;2023-07-22T11:22:03;95786.31;;;19.59;27.61
73671;BME280;61968;48.178;11.566;2023-07-22T11:24:32;95771.50;;;19.85;27.34
73671;BME280;61968;48.178;11.566;2023-07-22T11:26:59;95774.56;;;20.16;28.71
73671;BME280;61968;48.178;11.566;2023-07-22T11:29:28;95768.38;;;20.35;27.09
73671;BME280;61968;48.178;11.566;2023-07-22T11:31:55;95769.13;;;20.40;27.05
73671;BME280;61968;48.178;11.566;2023-07-22T11:34:23;95760.88;;;20.18;28.17
73671;BME280;61968;48.178;11.566;2023-07-22T11:36:53;95767.00;;;20.00;26.89
73671;BME280;61968;48.178;11.566;2023-07-22T11:39:23;95760.72;;;20.28;27.46
73671;BME280;61968;48.178;11.566;2023-07-22T11:41:50;95753.88;;;20.17;26.35
73671;BME280;61968;48.178;11.566;2023-07-22T11:44:18;95761.06;;;20.40;26.00
73671;BME280;61968;48.178;11.566;2023-07-22T11:46:51;95743.88;;;20.23;26.67
73671;BME280;61968;48.178;11.566;2023-07-22T11:49:26;95751.13;;;20.03;27.32
73671;BME280;61968;48.178;11.566;2023-07-22T11:51:57;95749.34;;;20.17;27.28
73671;BME280;61968;48.178;11.566;2023-07-22T11:54:26;95729.22;;;20.67;27.44
73671;BME280;61968;48.178;11.566;2023-07-22T11:56:53;95741.53;;;20.54;26.45
73671;BME280;61968;48.178;11.566;2023-07-22T11:59:33;95736.25;;;20.81;25.86
73671;BME280;61968;48.178;11.566;2023-07-22T12:02:01;95740.38;;;20.74;26.80
73671;BME280;61968;48.178;11.566;2023-07-22T12:04:30;95730.78;;;20.54;25.60
73671;BME280;61968;48.178;11.566;2023-07-22T12:06:56;95736.13;;;20.86;28.08
73671;BME280;61968;48.178;11.566;2023-07-22T12:09:23;95721.50;;;20.46;26.84
73671;BME280;61968;48.178;11.566;2023-07-22T12:11:56;95718.59;;;20.43;26.16
73671;BME280;61968;48.178;11.566;2023-07-22T12:14:23;95721.38;;;20.37;26.85
73671;BME280;61968;48.178;11.566;2023-07-22T12:16:55;95718.50;;;20.80;25.48
73671;BME280;61968;48.178;11.566;2023-07-22T12:19:22;95717.91;;;20.83;26.72
73671;BME280;61968;48.178;11.566;2023-07-22T12:21:49;95720.53;;;20.89;25.14
73671;BME280;61968;48.178;11.566;2023-07-22T12:24:16;95705.19;;;20.89;26.00
73671;BME280;61968;48.178;11.566;2023-07-22T12:26:42;95709.19;;;20.78;25.23
73671;BME280;61968;48.178;11.566;2023-07-22T12:29:10;95707.31;;;21.06;26.28
73671;BME280;61968;48.178;11.566;2023-07-22T12:31:36;95719.03;;;20.82;25.14
73671;BME280;61968;48.178;11.566;2023-07-22T12:34:03;95707.09;;;20.56;25.79
73671;BME280;61968;48.178;11.566;2023-07-22T12:36:30;95706.69;;;20.49;25.75
73671;BME280;61968;48.178;11.566;2023-07-22T12:38:56;95707.19;;;20.97;26.60
73671;BME280;61968;48.178;11.566;2023-07-22T12:41:23;95700.13;;;21.15;26.13
73671;BME280;61968;48.178;11.566;2023-07-22T12:43:49;95709.59;;;21.13;26.50
73671;BME280;61968;48.178;11.566;2023-07-22T12:46:18;95703.22;;;21.22;25.69
73671;BME280;61968;48.178;11.566;2023-07-22T12:48:44;95696.53;;;21.34;25.24
73671;BME280;61968;48.178;11.566;2023-07-22T12:51:11;95695.66;;;21.11;25.49
73671;BME280;61968;48.178;11.566;2023-07-22T12:53:38;95692.47;;;20.95;25.16